createdAt,value
2018-08-04T00:01:09.130Z,69.26
2018-08-04T00:03:37.411Z,68.93
2018-08-04T00:06:06.067Z,68.79
2018-08-04T00:08:34.363Z,68.51
2018-08-04T00:11:02.766Z,69.12
2018-08-04T00:13:31.122Z,69.31
2018-08-04T00:15:59.454Z,70.31
2018-08-04T00:18:27.748Z,70.96
2018-08-04T00:20:56.053Z,71.35
2018-08-04T00:23:24.678Z,72.47
2018-08-04T00:25:53.297Z,72.32
2018-08-04T00:28:21.706Z,72.04
2018-08-04T00:30:50.034Z,72.50
2018-08-04T00:33:18.391Z,73.07
2018-08-04T00:35:46.921Z,72.31
2018-08-04T00:38:15.346Z,72.73
2018-08-04T00:40:43.677Z,72.35
2018-08-04T00:43:12.033Z,72.23
2018-08-04T00:45:40.377Z,71.46
2018-08-04T00:48:08.736Z,70.95
2018-08-04T00:50:37.051Z,70.63
2018-08-04T00:53:05.574Z,71.58
2018-08-04T00:55:33.899Z,71.66
2018-08-04T00:58:02.209Z,71.83
2018-08-04T01:03:12.311Z,72.50
2018-08-04T01:05:40.774Z,73.37
2018-08-04T01:08:09.149Z,73.94
2018-08-04T01:10:37.432Z,74.92
2018-08-04T01:13:05.793Z,74.50
2018-08-04T01:15:34.111Z,74.90
2018-08-04T01:18:02.422Z,72.59
2018-08-04T01:20:30.780Z,74.32
2018-08-04T01:22:59.226Z,74.58
2018-08-04T01:25:27.601Z,75.00
2018-08-04T01:27:56.804Z,75.25
2018-08-04T01:30:25.270Z,75.81
2018-08-04T01:32:53.743Z,74.09
2018-08-04T01:35:22.018Z,72.97
2018-08-04T01:37:50.445Z,73.50
2018-08-04T01:40:18.785Z,73.87
2018-08-04T01:42:47.165Z,74.18
2018-08-04T01:45:15.689Z,74.52
2018-08-04T01:47:44.149Z,75.56
2018-08-04T01:50:12.532Z,74.79
2018-08-04T01:52:40.890Z,74.45
2018-08-04T01:55:09.277Z,72.98
2018-08-04T01:57:37.757Z,74.06
2018-08-04T02:00:06.122Z,73.67
2018-08-04T02:02:34.528Z,73.75
2018-08-04T02:05:02.859Z,74.22
2018-08-04T02:07:31.309Z,72.74
2018-08-04T02:09:59.642Z,72.83
2018-08-04T02:12:28.150Z,73.80
2018-08-04T02:14:56.534Z,72.93
2018-08-04T02:17:24.942Z,72.73
2018-08-04T02:19:53.278Z,72.95
2018-08-04T02:22:21.618Z,74.13
2018-08-04T02:24:50.053Z,74.77
2018-08-04T02:27:18.390Z,75.48
2018-08-04T02:29:46.701Z,74.67
2018-08-04T02:32:15.050Z,74.81
2018-08-04T02:34:43.356Z,75.59
2018-08-04T02:37:11.726Z,74.26
2018-08-04T02:39:40.103Z,75.13
2018-08-04T02:42:08.426Z,73.25
2018-08-04T02:44:36.779Z,72.85
2018-08-04T02:47:05.120Z,73.18
2018-08-04T02:49:34.093Z,75.20
2018-08-04T02:52:03.285Z,77.21
2018-08-04T02:54:34.333Z,77.63
2018-08-04T02:57:05.262Z,77.08
2018-08-04T02:59:33.553Z,76.58
2018-08-04T03:02:02.465Z,77.01
2018-08-04T03:04:33.155Z,77.34
2018-08-04T03:07:02.028Z,76.84
2018-08-04T03:09:33.227Z,75.63
2018-08-04T03:12:03.041Z,75.91
2018-08-04T03:14:32.188Z,76.85
2018-08-04T03:17:01.110Z,77.86
2018-08-04T03:19:31.477Z,77.66
2018-08-04T03:22:01.083Z,76.21
2018-08-04T03:24:29.493Z,76.00
2018-08-04T03:26:57.775Z,76.66
2018-08-04T03:29:26.076Z,76.50
2018-08-04T03:31:54.483Z,75.62
2018-08-04T03:34:22.963Z,76.06
2018-08-04T03:36:51.501Z,75.80
2018-08-04T03:39:20.843Z,75.96
2018-08-04T03:41:49.288Z,76.01
2018-08-04T03:44:18.871Z,77.26
2018-08-04T03:46:47.194Z,77.00
2018-08-04T03:49:16.382Z,77.82
2018-08-04T03:51:45.249Z,78.54
2018-08-04T03:54:14.644Z,77.27
2018-08-04T03:56:42.916Z,76.36
2018-08-04T03:59:11.212Z,76.82
2018-08-04T04:01:40.213Z,77.35
2018-08-04T04:04:08.523Z,76.51
2018-08-04T04:06:37.193Z,76.56
2018-08-04T04:09:11.705Z,76.22
2018-08-04T04:11:40.611Z,77.91
2018-08-04T04:14:10.311Z,78.17
2018-08-04T04:16:39.933Z,78.36
2018-08-04T04:19:08.333Z,80.05
2018-08-04T04:21:40.963Z,80.36
2018-08-04T04:24:10.562Z,79.82
2018-08-04T04:26:40.177Z,78.77
2018-08-04T04:29:08.548Z,77.43
2018-08-04T04:31:36.848Z,75.81
2018-08-04T04:34:05.793Z,75.85
2018-08-04T04:36:36.519Z,75.57
2018-08-04T04:39:07.430Z,75.53
2018-08-04T04:41:37.187Z,77.42
2018-08-04T04:44:06.180Z,78.67
2018-08-04T04:46:40.964Z,77.50
2018-08-04T04:49:11.641Z,78.83
2018-08-04T04:51:41.870Z,77.94
2018-08-04T04:54:12.510Z,76.33
2018-08-04T04:56:41.651Z,74.26
2018-08-04T04:59:11.688Z,73.93
2018-08-04T05:01:40.518Z,73.12
2018-08-04T05:04:10.441Z,73.30
2018-08-04T05:06:39.527Z,74.02
2018-08-04T05:09:09.668Z,74.10
2018-08-04T05:11:39.341Z,73.58
2018-08-04T05:14:08.374Z,74.33
2018-08-04T05:16:38.449Z,73.42
2018-08-04T05:19:07.838Z,73.30
2018-08-04T05:21:36.687Z,72.12
2018-08-04T05:24:05.419Z,72.99
2018-08-04T05:26:34.144Z,72.46
2018-08-04T05:29:03.123Z,71.21
2018-08-04T05:31:31.471Z,71.53
2018-08-04T05:33:59.845Z,71.61
2018-08-04T05:36:29.038Z,71.50
2018-08-04T05:38:57.597Z,71.48
2018-08-04T05:41:27.141Z,70.11
2018-08-04T05:43:55.993Z,70.02
2018-08-04T05:46:25.899Z,69.69
2018-08-04T05:48:56.210Z,69.02
2018-08-04T05:51:25.062Z,68.16
2018-08-04T05:54:05.064Z,67.42
2018-08-04T05:56:35.727Z,67.41
2018-08-04T05:59:07.082Z,66.76
2018-08-04T06:01:35.879Z,65.91
2018-08-04T06:04:13.985Z,65.58
2018-08-04T06:06:42.803Z,65.55
2018-08-04T06:09:12.308Z,63.91
2018-08-04T06:14:57.334Z,62.34
2018-08-04T06:20:18.765Z,61.34
2018-08-04T06:22:47.504Z,59.60
2018-08-04T06:25:16.439Z,58.85
2018-08-04T06:27:44.858Z,58.14
2018-08-04T06:36:52.104Z,59.59
2018-08-04T06:39:20.471Z,59.60
2018-08-04T06:41:52.792Z,58.52
2018-08-04T06:44:23.772Z,58.87
2018-08-04T06:46:54.289Z,57.95
2018-08-04T06:49:23.363Z,57.50
2018-08-04T07:06:12.050Z,55.25
2018-08-04T07:08:40.398Z,55.70
2018-08-04T07:11:08.704Z,55.26
2018-08-04T07:13:37.053Z,54.67
2018-08-04T07:16:05.420Z,54.11
2018-08-04T07:18:33.758Z,52.91
2018-08-04T07:21:05.248Z,53.49
2018-08-04T07:23:33.574Z,52.14
2018-08-04T07:26:04.083Z,52.26
2018-08-04T07:28:37.281Z,52.15
2018-08-04T07:31:08.931Z,51.39
2018-08-04T07:33:39.308Z,51.37
2018-08-04T07:36:10.195Z,51.48
2018-08-04T07:38:43.104Z,51.00
2018-08-04T07:41:16.757Z,49.96
2018-08-04T07:43:47.355Z,47.90
2018-08-04T07:46:16.096Z,49.40
2018-08-04T07:48:44.407Z,49.27
2018-08-04T07:51:12.996Z,48.06
2018-08-04T07:53:41.395Z,48.06
2018-08-04T07:56:09.858Z,47.21
2018-08-04T07:58:38.213Z,46.66
2018-08-04T08:01:07.198Z,47.64
2018-08-04T08:03:36.037Z,48.62
2018-08-04T08:06:04.403Z,47.76
2018-08-04T08:08:32.777Z,48.64
2018-08-04T08:11:01.180Z,48.98
2018-08-04T08:13:29.470Z,48.46
2018-08-04T08:15:57.771Z,48.45
2018-08-04T08:18:26.105Z,48.24
2018-08-04T08:20:54.743Z,48.92
2018-08-04T08:23:23.137Z,48.44
2018-08-04T08:26:03.531Z,49.01
2018-08-04T08:28:34.036Z,49.80
2018-08-04T08:31:02.362Z,50.82
2018-08-04T08:33:30.778Z,48.67
2018-08-04T08:35:59.143Z,49.18
2018-08-04T08:38:27.734Z,49.38
2018-08-04T08:40:56.125Z,48.68
2018-08-04T08:43:24.596Z,48.56
2018-08-04T08:45:52.954Z,48.67
2018-08-04T08:48:21.305Z,49.06
2018-08-04T08:50:49.588Z,48.48
2018-08-04T08:53:17.977Z,49.00
2018-08-04T08:55:46.318Z,48.81
2018-08-04T08:58:14.645Z,47.91
2018-08-04T09:00:42.959Z,49.00
2018-08-04T09:03:17.726Z,48.53
2018-08-04T09:05:46.043Z,48.77
2018-08-04T09:08:14.439Z,47.30
2018-08-04T09:10:42.752Z,48.02
2018-08-04T09:13:11.087Z,46.86
2018-08-04T09:15:39.378Z,47.15
2018-08-04T09:18:07.660Z,46.60
2018-08-04T09:20:35.979Z,46.47
2018-08-04T09:23:04.388Z,46.19
2018-08-04T09:25:32.669Z,44.81
2018-08-04T09:28:00.966Z,46.19
2018-08-04T09:30:29.296Z,46.58
2018-08-04T09:32:57.639Z,46.10
2018-08-04T09:35:26.034Z,45.69
2018-08-04T09:37:54.336Z,45.56
2018-08-04T09:40:22.659Z,45.51
2018-08-04T09:42:50.971Z,45.01
2018-08-04T09:45:19.299Z,45.35
2018-08-04T09:47:48.266Z,47.32
2018-08-04T09:50:16.681Z,46.06
2018-08-04T09:52:44.956Z,45.59
2018-08-04T09:55:13.367Z,46.57
2018-08-04T09:57:42.158Z,44.10
2018-08-04T10:00:17.354Z,44.72
2018-08-04T10:02:45.635Z,44.45
2018-08-04T10:05:14.059Z,42.84
2018-08-04T10:07:42.322Z,43.46
2018-08-04T10:10:10.600Z,43.03
2018-08-04T10:12:38.916Z,44.23
2018-08-04T10:15:08.271Z,42.78
2018-08-04T10:17:36.624Z,43.86
2018-08-04T10:20:05.822Z,44.18
2018-08-04T10:22:34.139Z,43.98
2018-08-04T10:25:02.462Z,45.15
2018-08-04T10:27:30.783Z,45.66
2018-08-04T10:29:59.083Z,44.75
2018-08-04T10:32:27.563Z,44.35
2018-08-04T10:34:55.882Z,44.50
2018-08-04T10:37:24.480Z,46.14
2018-08-04T10:39:52.946Z,44.98
2018-08-04T10:42:21.237Z,44.72
2018-08-04T10:44:49.636Z,46.13
2018-08-04T10:47:17.959Z,46.05
2018-08-04T10:49:46.230Z,45.53
2018-08-04T10:52:14.550Z,44.08
2018-08-04T10:54:42.863Z,45.34
2018-08-04T10:57:11.350Z,46.11
2018-08-04T10:59:39.658Z,46.29
2018-08-04T11:02:08.342Z,46.23
2018-08-04T11:04:36.702Z,45.81
2018-08-04T11:07:05.226Z,45.49
2018-08-04T11:09:33.546Z,44.54
2018-08-04T11:12:01.921Z,44.64
2018-08-04T11:14:30.390Z,42.93
2018-08-04T11:16:58.681Z,44.23
2018-08-04T11:19:27.023Z,44.09
2018-08-04T11:21:55.331Z,44.52
2018-08-04T11:24:23.678Z,43.74
2018-08-04T11:26:52.006Z,44.57
2018-08-04T11:29:20.321Z,43.14
2018-08-04T11:31:48.628Z,43.46
2018-08-04T11:34:17.048Z,42.13
2018-08-04T11:36:45.406Z,43.31
2018-08-04T11:39:13.797Z,42.96
2018-08-04T11:41:42.111Z,42.98
2018-08-04T11:44:10.472Z,43.30
2018-08-04T11:46:38.768Z,42.44
2018-08-04T11:49:07.260Z,42.25
2018-08-04T11:51:35.654Z,40.85
2018-08-04T11:54:04.231Z,40.94
2018-08-04T11:56:32.534Z,41.99
2018-08-04T11:59:00.803Z,41.62
2018-08-04T12:01:29.153Z,43.25
2018-08-04T12:03:57.460Z,42.16
2018-08-04T12:06:25.796Z,42.12
2018-08-04T12:08:54.076Z,42.46
2018-08-04T12:11:22.391Z,43.12
2018-08-04T12:13:50.833Z,43.41
2018-08-04T12:16:19.155Z,42.57
2018-08-04T12:18:47.437Z,43.15
2018-08-04T12:21:20.802Z,43.67
2018-08-04T12:24:11.064Z,43.69
2018-08-04T12:26:39.772Z,43.96
2018-08-04T12:29:08.502Z,43.40
2018-08-04T12:31:36.815Z,41.91
2018-08-04T12:34:05.464Z,42.98
2018-08-04T12:36:33.802Z,41.61
2018-08-04T12:39:02.136Z,40.91
2018-08-04T12:41:30.708Z,41.41
2018-08-04T12:43:59.026Z,40.91
2018-08-04T12:46:27.389Z,42.84
2018-08-04T12:48:55.710Z,41.54
2018-08-04T12:51:24.007Z,41.76
2018-08-04T12:53:52.328Z,40.00
2018-08-04T12:56:20.651Z,39.70
2018-08-04T12:58:48.951Z,38.96
2018-08-04T13:01:17.262Z,39.49
2018-08-04T13:03:45.530Z,41.08
2018-08-04T13:06:13.935Z,39.85
2018-08-04T13:08:42.289Z,40.67
2018-08-04T13:11:10.534Z,39.32
2018-08-04T13:13:38.858Z,40.62
2018-08-04T13:16:07.163Z,39.62
2018-08-04T13:18:35.436Z,40.10
2018-08-04T13:21:03.762Z,39.89
2018-08-04T13:23:32.079Z,39.25
2018-08-04T13:26:00.390Z,40.60
2018-08-04T13:28:28.779Z,40.06
2018-08-04T13:30:57.111Z,40.50
2018-08-04T13:33:25.405Z,39.73
2018-08-04T13:35:53.731Z,40.28
2018-08-04T13:38:22.190Z,39.32
2018-08-04T13:40:50.489Z,39.02
2018-08-04T13:43:19.342Z,39.17
2018-08-04T13:45:47.672Z,40.12
2018-08-04T13:48:16.228Z,38.62
2018-08-04T13:50:44.859Z,40.19
2018-08-04T13:53:31.322Z,38.89
2018-08-04T13:55:59.744Z,38.33
2018-08-04T13:58:28.941Z,38.40
2018-08-04T14:00:57.315Z,38.33
2018-08-04T14:03:25.625Z,37.26
2018-08-04T14:05:53.996Z,36.78
2018-08-04T14:08:22.309Z,37.75
2018-08-04T14:10:50.638Z,36.83
2018-08-04T14:13:18.937Z,37.32
2018-08-04T14:15:47.279Z,36.46
2018-08-04T14:18:15.711Z,37.57
2018-08-04T14:20:44.020Z,37.51
2018-08-04T14:23:12.350Z,36.66
2018-08-04T14:25:40.774Z,36.78
2018-08-04T14:28:09.183Z,37.01
2018-08-04T14:30:37.488Z,36.41
2018-08-04T14:33:05.871Z,36.82
2018-08-04T14:35:34.170Z,36.58
2018-08-04T14:38:02.449Z,36.97
2018-08-04T14:40:30.907Z,37.54
2018-08-04T14:42:59.408Z,36.47
2018-08-04T14:45:27.742Z,35.70
2018-08-04T14:47:56.006Z,36.71
2018-08-04T14:50:24.463Z,36.17
2018-08-04T14:52:52.806Z,36.82
2018-08-04T14:55:21.213Z,35.14
2018-08-04T14:57:49.533Z,34.67
2018-08-04T15:00:17.854Z,35.73
2018-08-04T15:02:46.149Z,35.87
2018-08-04T15:05:14.467Z,36.76
2018-08-04T15:07:43.933Z,37.69
2018-08-04T15:10:12.286Z,36.13
2018-08-04T15:12:40.866Z,35.64
2018-08-04T15:15:09.336Z,36.33
2018-08-04T15:17:37.746Z,36.69
2018-08-04T15:20:08.090Z,35.55
2018-08-04T15:22:36.506Z,36.81
2018-08-04T15:25:05.490Z,37.21
2018-08-04T15:27:34.667Z,35.86
2018-08-04T15:30:03.226Z,36.03
2018-08-04T15:32:31.590Z,37.06
2018-08-04T15:35:00.114Z,36.39
2018-08-04T15:37:28.782Z,36.49
2018-08-04T15:39:57.069Z,36.30
2018-08-04T15:42:25.384Z,35.35
2018-08-04T15:44:53.879Z,35.43
2018-08-04T15:47:22.253Z,36.57
2018-08-04T15:49:50.557Z,35.58
2018-08-04T15:52:19.278Z,36.91
2018-08-04T15:54:47.596Z,35.97
2018-08-04T15:57:16.060Z,36.10
2018-08-04T15:59:45.271Z,35.34
2018-08-04T16:02:13.609Z,36.70
2018-08-04T16:04:42.067Z,37.10
2018-08-04T16:07:10.540Z,37.02
2018-08-04T16:09:39.002Z,35.91
2018-08-04T16:12:07.834Z,35.49
2018-08-04T16:14:36.214Z,35.82
2018-08-04T16:17:04.526Z,35.63
2018-08-04T16:19:32.854Z,36.64
2018-08-04T16:22:01.249Z,35.56
2018-08-04T16:24:29.598Z,36.74
2018-08-04T16:26:57.966Z,36.01
2018-08-04T16:29:26.470Z,36.01
2018-08-04T16:32:04.537Z,35.91
2018-08-04T16:34:32.859Z,34.77
2018-08-04T16:37:01.248Z,35.63
2018-08-04T16:39:29.639Z,35.03
2018-08-04T16:41:58.316Z,36.15
2018-08-04T16:44:26.665Z,35.73
2018-08-04T16:46:55.000Z,34.29
2018-08-04T16:49:23.402Z,34.29
2018-08-04T16:51:51.774Z,35.43
2018-08-04T16:54:20.104Z,33.86
2018-08-04T16:56:48.461Z,34.48
2018-08-04T16:59:16.797Z,34.17
2018-08-04T17:01:45.277Z,34.59
2018-08-04T17:04:13.649Z,35.31
2018-08-04T17:06:41.977Z,34.92
2018-08-04T17:09:12.059Z,34.69
2018-08-04T17:11:40.419Z,34.24
2018-08-04T17:14:09.189Z,34.51
2018-08-04T17:16:37.505Z,35.42
2018-08-04T17:19:06.131Z,35.52
2018-08-04T17:21:34.566Z,35.55
2018-08-04T17:24:03.012Z,35.51
2018-08-04T17:26:31.316Z,36.17
2018-08-04T17:28:59.733Z,35.58
2018-08-04T17:31:28.086Z,34.90
2018-08-04T17:33:56.386Z,34.69
2018-08-04T17:36:24.966Z,35.39
2018-08-04T17:38:53.361Z,34.86
2018-08-04T17:41:21.711Z,35.65
2018-08-04T17:43:50.154Z,35.10
2018-08-04T17:46:18.487Z,35.32
2018-08-04T17:48:46.790Z,36.00
2018-08-04T17:51:15.092Z,36.17
2018-08-04T17:53:43.520Z,35.43
2018-08-04T17:56:11.940Z,36.00
2018-08-04T17:58:40.264Z,36.90
2018-08-04T18:01:08.622Z,37.38
2018-08-04T18:03:36.962Z,36.13
2018-08-04T18:06:05.379Z,36.77
2018-08-04T18:08:33.833Z,36.91
2018-08-04T18:11:02.273Z,36.74
2018-08-04T18:13:30.558Z,38.01
2018-08-04T18:15:58.989Z,37.65
2018-08-04T18:18:27.419Z,38.18
2018-08-04T18:20:55.782Z,38.58
2018-08-04T18:23:24.157Z,39.02
2018-08-04T18:25:52.467Z,39.39
2018-08-04T18:28:20.802Z,39.84
2018-08-04T18:30:49.235Z,39.82
2018-08-04T18:33:17.632Z,39.40
2018-08-04T18:35:46.111Z,40.22
2018-08-04T18:38:14.649Z,40.44
2018-08-04T18:40:43.102Z,40.88
2018-08-04T18:43:12.439Z,40.73
2018-08-04T18:45:40.825Z,41.25
2018-08-04T18:48:09.184Z,42.50
2018-08-04T18:50:37.506Z,41.79
2018-08-04T18:53:06.020Z,43.02
2018-08-04T18:55:34.354Z,42.37
2018-08-04T18:58:02.662Z,43.17
2018-08-04T19:00:31.072Z,42.51
2018-08-04T19:02:59.427Z,44.02
2018-08-04T19:05:27.786Z,44.23
2018-08-04T19:07:56.129Z,42.92
2018-08-04T19:10:24.506Z,44.20
2018-08-04T19:12:52.870Z,44.16
2018-08-04T19:15:21.286Z,43.84
2018-08-04T19:17:49.642Z,44.47
2018-08-04T19:20:18.085Z,45.73
2018-08-04T19:22:46.390Z,45.82
2018-08-04T19:25:14.850Z,46.35
2018-08-04T19:27:43.448Z,46.31
2018-08-04T19:30:11.768Z,47.41
2018-08-04T19:32:40.111Z,46.99
2018-08-04T19:35:11.691Z,47.01
2018-08-04T19:37:41.851Z,47.99
2018-08-04T19:40:10.210Z,48.13
2018-08-04T19:42:38.633Z,48.37
2018-08-04T19:45:07.088Z,48.62
2018-08-04T19:47:37.356Z,47.22
2018-08-04T19:50:05.828Z,48.15
2018-08-04T19:52:34.104Z,48.28
2018-08-04T19:55:02.437Z,47.98
2018-08-04T19:57:31.517Z,47.47
2018-08-04T19:59:59.866Z,48.37
2018-08-04T20:02:28.191Z,49.25
2018-08-04T20:04:56.570Z,49.58
2018-08-04T20:07:25.897Z,49.32
2018-08-04T20:09:54.339Z,50.10
2018-08-04T20:12:22.683Z,49.84
2018-08-04T20:14:51.083Z,49.81
2018-08-04T20:17:19.348Z,50.20
2018-08-04T20:19:49.193Z,51.02
2018-08-04T20:22:18.004Z,50.28
2018-08-04T20:24:46.649Z,52.22
2018-08-04T20:27:15.198Z,53.13
2018-08-04T20:29:43.613Z,53.12
2018-08-04T20:32:11.958Z,51.60
2018-08-04T20:34:42.408Z,51.12
2018-08-04T20:37:10.798Z,51.11
2018-08-04T20:39:39.118Z,50.22
2018-08-04T20:42:07.439Z,51.32
2018-08-04T20:44:37.695Z,51.68
2018-08-04T20:47:06.086Z,51.15
2018-08-04T20:49:34.370Z,50.90
2018-08-04T20:52:03.519Z,51.37
2018-08-04T20:54:31.886Z,51.78
2018-08-04T20:57:00.482Z,51.92
2018-08-04T20:59:29.030Z,52.76
2018-08-04T21:02:00.749Z,52.89
2018-08-04T21:04:31.301Z,53.20
2018-08-04T21:07:01.088Z,53.32
2018-08-04T21:09:29.524Z,53.56
2018-08-04T21:11:59.050Z,52.91
2018-08-04T21:14:28.705Z,53.32
2018-08-04T21:16:57.938Z,53.41
2018-08-04T21:19:26.642Z,53.60
2018-08-04T21:21:55.028Z,53.60
2018-08-04T21:24:24.442Z,54.81
2018-08-04T21:26:53.613Z,54.26
2018-08-04T21:29:22.675Z,53.92
2018-08-04T21:31:51.058Z,54.73
2018-08-04T21:34:19.421Z,54.80
2018-08-04T21:36:47.702Z,55.05
2018-08-04T21:39:18.179Z,55.32
2018-08-04T21:41:47.286Z,54.93
2018-08-04T21:44:15.689Z,55.37
2018-08-04T21:46:46.094Z,56.36
2018-08-04T21:49:14.493Z,55.93
2018-08-04T21:51:44.174Z,56.79
2018-08-04T21:54:13.770Z,56.41
2018-08-04T21:56:42.487Z,56.67
2018-08-04T21:59:11.029Z,57.35
2018-08-04T22:01:41.601Z,58.03
2018-08-04T22:04:09.827Z,58.79
2018-08-04T22:07:49.098Z,57.69
2018-08-04T22:10:17.415Z,58.77
2018-08-04T22:12:47.081Z,59.62
2018-08-04T22:15:16.138Z,59.57
2018-08-04T22:17:44.649Z,59.83
2018-08-04T22:20:15.058Z,59.50
2018-08-04T22:22:43.978Z,59.11
2018-08-04T22:25:13.646Z,60.15
2018-08-04T22:27:42.063Z,59.57
2018-08-04T22:30:12.902Z,61.04
2018-08-04T22:32:41.707Z,60.56
2018-08-04T22:35:10.023Z,61.16
2018-08-04T22:37:39.017Z,60.42
2018-08-04T22:40:08.194Z,60.62
2018-08-04T22:42:36.936Z,60.43
2018-08-04T22:45:16.620Z,61.46
2018-08-04T22:47:45.426Z,60.66
2018-08-04T22:50:13.726Z,61.13
2018-08-04T22:52:42.061Z,61.74
2018-08-04T22:55:10.375Z,60.97
2018-08-04T22:57:38.678Z,62.10
2018-08-04T23:00:07.717Z,61.84
2018-08-04T23:02:35.987Z,62.65
2018-08-04T23:05:04.359Z,61.94
2018-08-04T23:07:32.655Z,62.14
2018-08-04T23:10:01.018Z,62.67
2018-08-04T23:12:29.419Z,61.94
2018-08-04T23:14:57.743Z,62.46
2018-08-04T23:17:26.117Z,62.84
2018-08-04T23:19:54.413Z,63.70
2018-08-04T23:22:22.706Z,63.04
2018-08-04T23:24:51.171Z,63.50
2018-08-04T23:27:19.580Z,63.95
2018-08-04T23:29:47.882Z,64.57
2018-08-04T23:32:16.155Z,63.72
2018-08-04T23:34:44.486Z,64.40
2018-08-04T23:37:12.819Z,64.42
2018-08-04T23:39:41.199Z,65.60
2018-08-04T23:42:09.494Z,65.67
2018-08-04T23:44:37.833Z,65.44
2018-08-04T23:47:06.199Z,66.04
2018-08-04T23:49:34.535Z,65.69
2018-08-04T23:52:02.874Z,66.04
2018-08-04T23:54:31.154Z,66.16
2018-08-04T23:56:59.514Z,65.97
2018-08-04T23:59:27.845Z,66.24
